Time;durP1;ratioP1;P1;durP2;ratioP2;P2;SDS_P1;SDS_P2;PMS_P1;PMS_P2;Temp;Humidity;BMP_temperature;BMP_pressure;BME280_temperature;BME280_humidity;BME280_pressure;Samples;Min_cycle;Max_cycle;Signal;HPM_P1;HPM_P2
2023/01/26 00:01:13;;;;;;;99.30;30.25;;;;;;;-1.90;100.00;102524.84;5220152;22;20076;-70
2023/01/26 00:11:28;;;;;;;92.43;27.98;;;;;;;-1.92;100.00;102517.03;5166625;22;20064;-69
2023/01/26 00:13:55;;;;;;;89.28;27.10;;;;;;;-1.90;100.00;102506.97;5191683;22;20103;-68
2023/01/26 00:18:50;;;;;;;97.03;28.75;;;;;;;-1.87;100.00;102504.72;5264329;22;20114;-69
2023/01/26 00:24:00;;;;;;;97.55;30.00;;;;;;;-1.86;100.00;102498.88;5288370;22;20378;-63
2023/01/26 00:29:01;;;;;;;89.28;26.23;;;;;;;-1.88;100.00;102496.16;5202480;22;20012;-63
2023/01/26 00:31:27;;;;;;;95.03;28.42;;;;;;;-1.89;100.00;102496.91;5159023;22;21887;-69
2023/01/26 00:33:54;;;;;;;92.95;27.77;;;;;;;-1.89;100.00;102494.34;5269880;22;20204;-62
2023/01/26 00:36:20;;;;;;;105.18;32.70;;;;;;;-1.88;100.00;102485.03;5235099;22;20057;-63
2023/01/26 00:38:46;;;;;;;94.18;28.20;;;;;;;-1.88;100.00;102485.03;5172508;22;20053;-69
2023/01/26 00:43:44;;;;;;;88.18;28.92;;;;;;;-1.89;100.00;102481.56;5269749;22;20020;-69
2023/01/26 00:46:10;;;;;;;95.75;29.15;;;;;;;-1.87;100.00;102481.72;5181545;22;20050;-69
2023/01/26 00:48:35;;;;;;;88.32;29.13;;;;;;;-1.87;100.00;102472.41;5362421;22;20096;-69
2023/01/26 00:53:36;;;;;;;84.70;27.30;;;;;;;-1.83;100.00;102473.63;5210148;22;20056;-70
2023/01/26 01:00:58;;;;;;;83.75;27.92;;;;;;;-1.87;100.00;102462.19;5119044;22;20863;-62
2023/01/26 01:05:52;;;;;;;79.65;25.60;;;;;;;-1.88;100.00;102451.81;5234994;22;20052;-63
2023/01/26 01:08:18;;;;;;;77.30;25.58;;;;;;;-1.88;100.00;102459.47;5058081;28;20028;-62
2023/01/26 01:10:43;;;;;;;78.13;25.48;;;;;;;-1.89;100.00;102450.03;5058266;28;20608;-63
2023/01/26 01:13:08;;;;;;;76.78;24.77;;;;;;;-1.93;100.00;102446.25;5254767;22;20546;-70
2023/01/26 01:15:34;;;;;;;79.30;24.33;;;;;;;-1.91;100.00;102444.78;5249039;22;20045;-63
2023/01/26 01:17:59;;;;;;;77.65;25.65;;;;;;;-1.88;100.00;102451.81;5365883;22;20043;-69
2023/01/26 01:20:24;;;;;;;81.07;24.67;;;;;;;-1.86;100.00;102463.09;5398062;22;20071;-62
2023/01/26 01:22:50;;;;;;;83.38;26.13;;;;;;;-1.84;100.00;102461.59;5247751;22;20469;-70
2023/01/26 01:25:33;;;;;;;86.07;27.23;;;;;;;-1.82;100.00;102460.13;5138800;22;20140;-96
2023/01/26 01:27:59;;;;;;;78.50;25.92;;;;;;;-1.79;100.00;102447.63;5213058;23;20047;-70
2023/01/26 01:30:24;;;;;;;82.82;26.23;;;;;;;-1.79;100.00;102448.53;5373787;22;20064;-62
2023/01/26 01:32:50;;;;;;;75.07;24.60;;;;;;;-1.78;100.00;102441.78;5251162;22;20431;-62
2023/01/26 01:38:11;;;;;;;78.10;25.98;;;;;;;-1.77;100.00;102456.34;5071477;23;20081;-62
2023/01/26 01:44:00;;;;;;;74.20;24.27;;;;;;;-1.77;100.00;102444.50;4971393;28;20041;-95
2023/01/26 01:56:40;;;;;;;69.88;23.58;;;;;;;-1.64;100.00;102451.69;4937507;28;20355;-62
2023/01/26 01:59:07;;;;;;;78.88;24.67;;;;;;;-1.63;100.00;102458.63;4983676;23;20065;-95
2023/01/26 02:01:33;;;;;;;79.82;26.67;;;;;;;-1.61;100.00;102448.53;4946034;28;20479;-95
2023/01/26 02:04:03;;;;;;;76.93;25.63;;;;;;;-1.58;100.00;102447.22;4956912;28;20042;-96
2023/01/26 02:06:35;;;;;;;73.47;23.67;;;;;;;-1.55;100.00;102448.25;4946150;28;20458;-95
2023/01/26 02:09:03;;;;;;;76.72;24.67;;;;;;;-1.55;100.00;102446.63;4947202;28;20030;-95
2023/01/26 02:11:37;;;;;;;79.35;24.65;;;;;;;-1.52;100.00;102441.78;4955554;28;20031;-95
2023/01/26 02:14:07;;;;;;;77.93;24.75;;;;;;;-1.50;100.00;102434.28;4945866;28;20101;-94
2023/01/26 02:16:38;;;;;;;72.75;24.20;;;;;;;-1.49;100.00;102428.38;4946530;28;20060;-95
2023/01/26 02:19:08;;;;;;;75.65;24.45;;;;;;;-1.49;100.00;102418.16;4945357;28;20062;-95
2023/01/26 02:21:33;;;;;;;;;;;;;;;-1.45;100.00;102421.19;4947028;28;20044;-95
2023/01/26 02:24:21;;;;;;;72.63;22.83;;;;;;;-1.51;100.00;102419.69;4946423;28;20279;-96
2023/01/26 02:26:47;;;;;;;70.88;23.27;;;;;;;-1.54;100.00;102421.94;4957179;28;20050;-96
2023/01/26 02:29:16;;;;;;;68.20;22.02;;;;;;;-1.56;100.00;102424.34;4987358;28;20062;-96
2023/01/26 02:31:44;;;;;;;84.10;25.38;;;;;;;-1.58;100.00;102419.09;4986591;28;20047;-96
2023/01/26 02:34:15;;;;;;;72.15;22.90;;;;;;;-1.58;100.00;102423.28;4987817;28;20030;-96
2023/01/26 02:36:43;;;;;;;79.25;25.38;;;;;;;-1.58;100.00;102423.28;4985968;28;20023;-96
2023/01/26 02:39:29;;;;;;;73.88;23.27;;;;;;;-1.54;100.00;102416.81;4970675;28;20034;-96
2023/01/26 02:44:43;;;;;;;72.65;24.40;;;;;;;-1.52;100.00;102415.31;4995587;28;20046;-96
2023/01/26 02:47:17;;;;;;;67.22;22.52;;;;;;;-1.51;100.00;102414.56;4976293;28;20098;-96
2023/01/26 02:49:46;;;;;;;69.95;23.20;;;;;;;-1.51;100.00;102405.22;4954231;28;20176;-96
2023/01/26 02:52:12;;;;;;;72.30;24.08;;;;;;;-1.51;100.00;102402.69;4940683;29;20046;-96
2023/01/26 02:57:32;;;;;;;69.10;22.20;;;;;;;-1.45;100.00;102405.84;4971616;28;20058;-96
2023/01/26 02:59:57;;;;;;;67.95;21.67;;;;;;;-1.42;100.00;102402.66;4973890;28;20078;-96
2023/01/26 03:02:23;;;;;;;67.60;23.75;;;;;;;-1.45;100.00;102400.75;4954306;28;20604;-96
2023/01/26 03:04:49;;;;;;;70.47;22.77;;;;;;;-1.43;100.00;102401.78;4961116;28;20037;-96
2023/01/26 03:07:15;;;;;;;63.03;20.95;;;;;;;-1.43;100.00;102393.22;4953719;28;20095;-96
2023/01/26 03:09:43;;;;;;;66.65;21.95;;;;;;;-1.42;100.00;102397.56;4955630;28;20066;-96
2023/01/26 03:12:09;;;;;;;62.38;22.45;;;;;;;-1.45;100.00;102397.25;4937215;28;20028;-96
2023/01/26 03:14:37;;;;;;;66.60;22.00;;;;;;;-1.44;100.00;102401.63;4942164;28;20038;-96
2023/01/26 03:17:03;;;;;;;65.70;21.10;;;;;;;-1.39;100.00;102408.09;4955449;29;20042;-96
2023/01/26 03:27:46;;;;;;;59.72;21.02;;;;;;;-1.28;100.00;102401.47;4966736;28;20072;-96
2023/01/26 03:30:14;;;;;;;69.70;21.95;;;;;;;-1.29;100.00;102400.56;4950683;28;20027;-96
2023/01/26 03:32:40;;;;;;;64.55;21.15;;;;;;;-1.29;100.00;102395.47;4949883;29;20020;-96
2023/01/26 03:35:13;;;;;;;59.80;20.23;;;;;;;-1.26;100.00;102400.84;4955426;28;20007;-96
2023/01/26 03:37:42;;;;;;;64.47;22.00;;;;;;;-1.23;100.00;102401.16;4953080;28;20031;-96
2023/01/26 03:56:44;;;;;;;53.42;19.70;;;;;;;-1.13;100.00;102389.22;4969989;28;20050;-96
2023/01/26 03:59:14;;;;;;;59.75;21.08;;;;;;;-1.08;100.00;102391.47;4960889;28;20039;-96
2023/01/26 04:10:00;;;;;;;61.15;20.77;;;;;;;-1.04;100.00;102387.56;4954243;28;20090;-96
2023/01/26 04:12:25;;;;;;;67.85;23.02;;;;;;;-1.05;100.00;102378.97;4936308;28;20368;-96
2023/01/26 04:23:06;;;;;;;53.10;19.42;;;;;;;-1.02;100.00;102390.28;4958837;28;20514;-96
2023/01/26 04:25:31;;;;;;;53.42;18.02;;;;;;;-1.01;100.00;102392.97;4939617;28;20027;-96
2023/01/26 04:27:56;;;;;;;52.03;19.05;;;;;;;-0.98;100.00;102392.38;4939107;28;20034;-96
2023/01/26 04:30:22;;;;;;;55.25;18.25;;;;;;;-0.96;100.00;102383.16;4938012;28;20031;-96
2023/01/26 04:32:50;;;;;;;49.58;17.95;;;;;;;-0.94;100.00;102381.66;4940430;28;20027;-96
2023/01/26 04:35:19;;;;;;;53.50;17.73;;;;;;;-0.95;100.00;102385.00;4949910;28;20035;-96
2023/01/26 04:37:44;;;;;;;53.13;19.20;;;;;;;-0.93;100.00;102391.13;4931445;29;20042;-95
2023/01/26 04:40:10;;;;;;;52.63;19.67;;;;;;;-0.93;100.00;102392.06;4944613;28;20030;-94
2023/01/26 04:42:35;;;;;;;48.30;17.85;;;;;;;-0.91;100.00;102389.66;4928389;28;20045;-95
2023/01/26 04:45:01;;;;;;;47.17;17.08;;;;;;;-0.91;100.00;102382.84;4945113;28;20118;-95
2023/01/26 04:47:26;;;;;;;55.25;19.75;;;;;;;-0.86;100.00;102388.41;4929196;28;20038;-95
2023/01/26 04:49:54;;;;;;;52.30;17.48;;;;;;;-0.82;100.00;102384.50;4928613;29;20118;-95
2023/01/26 04:52:19;;;;;;;51.03;17.80;;;;;;;-0.78;100.00;102387.47;4946291;28;20062;-96
2023/01/26 04:54:48;;;;;;;45.42;16.25;;;;;;;-0.75;100.00;102380.09;4945688;28;20030;-95
2023/01/26 04:57:13;;;;;;;45.90;16.40;;;;;;;-0.74;100.00;102384.47;4944441;28;20028;-96
2023/01/26 04:59:39;;;;;;;48.78;17.05;;;;;;;-0.74;100.00;102383.53;4934353;28;20141;-95
2023/01/26 05:02:04;;;;;;;43.17;15.77;;;;;;;-0.69;100.00;102390.00;4931284;28;20381;-96
2023/01/26 05:04:30;;;;;;;47.58;15.52;;;;;;;-0.71;100.00;102382.19;4922639;28;20027;-95
2023/01/26 05:06:58;;;;;;;45.35;14.82;;;;;;;-0.69;100.00;102384.00;4935918;28;20091;-96
2023/01/26 05:09:24;;;;;;;46.38;16.40;;;;;;;-0.68;100.00;102378.09;4936667;28;20028;-96
2023/01/26 05:11:52;;;;;;;47.95;16.52;;;;;;;-0.66;100.00;102381.72;4923338;29;20039;-96
2023/01/26 05:14:21;;;;;;;43.88;15.43;;;;;;;-0.64;100.00;102380.19;4937274;29;20050;-96
2023/01/26 05:16:50;;;;;;;42.95;15.07;;;;;;;-0.64;100.00;102381.06;4952241;28;20034;-96
2023/01/26 05:19:16;;;;;;;44.03;15.63;;;;;;;-0.64;100.00;102380.19;4926957;29;20036;-96
2023/01/26 05:21:41;;;;;;;44.10;15.18;;;;;;;-0.65;100.00;102383.50;4941049;28;20038;-96
2023/01/26 05:24:12;;;;;;;42.65;15.38;;;;;;;-0.64;100.00;102377.63;4932863;29;20042;-96
2023/01/26 05:26:38;;;;;;;38.85;14.20;;;;;;;-0.62;100.00;102374.47;4941778;28;20059;-96
2023/01/26 05:29:03;;;;;;;44.80;15.90;;;;;;;-0.58;100.00;102381.66;4933828;28;20027;-96
2023/01/26 05:31:29;;;;;;;44.10;15.25;;;;;;;-0.57;100.00;102382.56;4952189;28;20035;-96
2023/01/26 05:33:54;;;;;;;40.30;14.15;;;;;;;-0.57;100.00;102385.13;4936116;28;20039;-96
2023/01/26 05:36:20;;;;;;;43.83;15.05;;;;;;;-0.55;100.00;102384.50;4930468;28;20020;-96
2023/01/26 05:38:47;;;;;;;42.60;14.88;;;;;;;-0.50;100.00;102389.16;4948470;28;20167;-96
2023/01/26 05:41:13;;;;;;;39.90;14.10;;;;;;;-0.47;100.00;102392.91;4952126;28;20166;-96
2023/01/26 05:43:42;;;;;;;41.92;15.55;;;;;;;-0.46;100.00;102389.59;4953441;28;20030;-96
2023/01/26 05:46:07;;;;;;;41.23;13.23;;;;;;;-0.43;100.00;102389.88;4931325;28;20027;-96
2023/01/26 05:48:33;;;;;;;38.30;14.45;;;;;;;-0.44;100.00;102382.94;4946625;28;20037;-96
2023/01/26 05:51:01;;;;;;;41.53;13.70;;;;;;;-0.45;100.00;102385.34;4933353;29;20035;-96
2023/01/26 05:53:27;;;;;;;38.03;13.25;;;;;;;-0.45;100.00;102383.72;4926730;29;20074;-96
2023/01/26 05:55:52;;;;;;;41.03;13.98;;;;;;;-0.47;100.00;102386.88;4926345;29;20023;-96
2023/01/26 05:58:18;;;;;;;38.92;13.63;;;;;;;-0.47;100.00;102387.78;4927745;29;20047;-96
2023/01/26 06:00:43;;;;;;;38.38;13.55;;;;;;;-0.48;100.00;102392.75;4948153;28;20032;-96
2023/01/26 06:03:09;;;;;;;40.45;13.57;;;;;;;-0.50;100.00;102389.16;4930150;29;20054;-96
2023/01/26 06:05:34;;;;;;;41.38;13.13;;;;;;;-0.51;100.00;102385.69;4939234;29;20036;-96
2023/01/26 06:08:00;;;;;;;35.90;13.15;;;;;;;-0.49;100.00;102394.44;4933027;29;20606;-96
2023/01/26 06:10:25;;;;;;;35.78;12.82;;;;;;;-0.48;100.00;102395.31;4932949;29;20024;-96
2023/01/26 06:12:53;;;;;;;37.95;13.38;;;;;;;-0.47;100.00;102394.56;4937575;29;20042;-96
2023/01/26 06:15:22;;;;;;;35.00;13.23;;;;;;;-0.48;100.00;102403.00;4944525;29;20055;-96
2023/01/26 06:17:49;;;;;;;39.92;12.93;;;;;;;-0.49;100.00;102401.19;4940871;29;20055;-96
2023/01/26 06:20:15;;;;;;;37.30;13.65;;;;;;;-0.50;100.00;102404.53;4939457;29;20034;-96
2023/01/26 06:22:41;;;;;;;36.38;12.48;;;;;;;-0.48;100.00;102408.13;4938819;29;20051;-96
2023/01/26 06:25:09;;;;;;;38.40;12.52;;;;;;;-0.51;100.00;102402.72;4936983;28;20283;-96
2023/01/26 06:27:40;;;;;;;37.05;12.68;;;;;;;-0.49;100.00;102393.50;4940651;28;20023;-96
2023/01/26 06:30:07;;;;;;;34.83;12.30;;;;;;;-0.48;100.00;102400.44;4937899;29;20060;-96
2023/01/26 06:32:36;;;;;;;36.60;12.82;;;;;;;-0.47;100.00;102400.59;4945683;28;20114;-96
2023/01/26 06:35:02;;;;;;;34.45;12.13;;;;;;;-0.44;100.00;102405.97;4953500;28;20110;-96
2023/01/26 06:37:30;;;;;;;37.80;12.55;;;;;;;-0.43;100.00;102402.66;4936554;28;20027;-96
2023/01/26 06:39:55;;;;;;;33.85;11.23;;;;;;;-0.41;100.00;102410.50;4947221;28;20024;-96
2023/01/26 06:42:21;;;;;;;35.22;11.77;;;;;;;-0.41;100.00;102405.38;4936655;28;20059;-96
2023/01/26 06:44:46;;;;;;;33.53;11.77;;;;;;;-0.39;100.00;102402.22;4948897;28;20055;-96
2023/01/26 06:47:15;;;;;;;35.88;11.43;;;;;;;-0.38;100.00;102408.22;4954020;28;20095;-96
2023/01/26 06:49:40;;;;;;;37.17;12.57;;;;;;;-0.39;100.00;102411.53;4940645;28;20024;-96
2023/01/26 06:52:33;;;;;;;37.08;12.52;;;;;;;-0.37;100.00;102412.59;4952952;28;20031;-96
2023/01/26 06:54:59;;;;;;;37.00;13.32;;;;;;;-0.40;100.00;102409.75;4932936;28;20117;-96
2023/01/26 06:57:25;;;;;;;35.60;12.40;;;;;;;-0.41;100.00;102413.06;4948221;28;20083;-96
2023/01/26 06:59:51;;;;;;;38.05;12.52;;;;;;;-0.40;100.00;102413.19;4952487;28;20482;-96
2023/01/26 07:02:21;;;;;;;36.15;12.25;;;;;;;-0.41;100.00;102411.38;4942216;29;20031;-96
2023/01/26 07:04:48;;;;;;;35.35;13.07;;;;;;;-0.39;100.00;102409.88;4954086;28;20122;-96
2023/01/26 07:07:14;;;;;;;34.20;12.40;;;;;;;-0.37;100.00;102410.03;4936604;29;20027;-96
2023/01/26 07:09:44;;;;;;;35.83;12.73;;;;;;;-0.34;100.00;102418.00;4952398;28;20035;-96
2023/01/26 07:12:10;;;;;;;35.47;12.52;;;;;;;-0.34;100.00;102418.00;4952268;28;20027;-96
2023/01/26 07:14:35;;;;;;;33.60;11.52;;;;;;;-0.33;100.00;102414.69;4950327;28;20019;-96
2023/01/26 07:17:01;;;;;;;33.30;12.20;;;;;;;-0.30;100.00;102432.88;4932995;28;20034;-96
2023/01/26 07:19:36;;;;;;;34.90;12.30;;;;;;;-0.31;100.00;102428.50;4937474;29;20086;-96
2023/01/26 07:22:01;;;;;;;33.20;11.98;;;;;;;-0.30;100.00;102426.88;4943237;29;20122;-96
2023/01/26 07:24:30;;;;;;;36.45;11.95;;;;;;;-0.30;100.00;102425.22;4932386;28;20055;-96
2023/01/26 07:26:56;;;;;;;37.10;12.43;;;;;;;-0.30;100.00;102425.22;4933000;28;20023;-96
2023/01/26 07:29:24;;;;;;;31.75;11.07;;;;;;;-0.32;100.00;102431.81;4948416;28;20109;-96
2023/01/26 07:31:53;;;;;;;38.95;12.35;;;;;;;-0.29;100.00;102424.47;4942341;29;20032;-96
2023/01/26 07:34:19;;;;;;;34.35;12.75;;;;;;;-0.27;100.00;102434.84;4935755;28;20063;-96
2023/01/26 07:37:12;;;;;;;33.58;11.88;;;;;;;-0.25;100.00;102426.50;4940941;29;20023;-96
2023/01/26 07:39:37;;;;;;;31.08;11.55;;;;;;;-0.25;100.00;102429.06;4930480;28;20049;-96
2023/01/26 07:42:03;;;;;;;35.58;11.77;;;;;;;-0.23;100.00;102429.25;4945871;28;20035;-96
2023/01/26 07:44:28;;;;;;;34.35;12.50;;;;;;;-0.22;100.00;102429.38;4930697;28;20023;-96
2023/01/26 07:46:54;;;;;;;35.42;11.63;;;;;;;-0.19;100.00;102428.75;4934028;28;20027;-96
2023/01/26 07:49:20;;;;;;;35.38;11.45;;;;;;;-0.19;100.00;102423.63;4932792;29;20054;-96
2023/01/26 07:51:47;;;;;;;33.80;12.60;;;;;;;-0.19;100.00;102429.66;4944356;28;20028;-96
2023/01/26 07:54:20;;;;;;;38.30;12.35;;;;;;;-0.18;100.00;102436.56;4936223;29;20012;-96
2023/01/26 07:56:51;;;;;;;32.50;11.00;;;;;;;-0.14;100.00;102439.44;4955653;28;20099;-96
2023/01/26 07:59:17;;;;;;;35.97;12.75;;;;;;;-0.15;100.00;102445.31;4927827;29;20054;-96
2023/01/26 08:01:42;;;;;;;36.80;12.32;;;;;;;-0.16;100.00;102446.06;4920893;29;20025;-96
2023/01/26 08:04:08;;;;;;;35.13;11.60;;;;;;;-0.16;100.00;102443.50;4919549;29;20035;-96
2023/01/26 08:06:33;;;;;;;33.58;11.30;;;;;;;-0.15;100.00;102450.44;4921927;29;20046;-96
2023/01/26 08:08:59;;;;;;;41.20;12.25;;;;;;;-0.13;100.00;102448.91;4916372;29;20047;-96
2023/01/26 08:11:25;;;;;;;37.50;11.95;;;;;;;-0.12;100.00;102448.16;4923469;29;20091;-96
2023/01/26 08:13:51;;;;;;;35.70;11.65;;;;;;;-0.14;100.00;102453.16;4923873;29;20045;-96
2023/01/26 08:16:17;;;;;;;35.80;12.00;;;;;;;-0.13;100.00;102456.59;4939729;29;20028;-96
2023/01/26 08:18:44;;;;;;;32.60;12.48;;;;;;;-0.13;100.00;102459.16;4925691;29;20043;-96
2023/01/26 08:21:12;;;;;;;34.05;11.35;;;;;;;-0.13;100.00;102454.97;4920543;29;20035;-96
2023/01/26 08:23:38;;;;;;;34.00;10.88;;;;;;;-0.10;100.00;102462.00;4920800;29;20559;-96
2023/01/26 08:26:06;;;;;;;38.38;11.88;;;;;;;-0.11;100.00;102462.78;4916370;29;20027;-96
2023/01/26 08:28:32;;;;;;;36.58;12.82;;;;;;;-0.10;100.00;102459.44;4912976;29;20107;-96
2023/01/26 08:31:06;;;;;;;35.17;12.25;;;;;;;-0.08;100.00;102458.84;4920255;29;20023;-96
2023/01/26 08:33:33;;;;;;;34.03;12.25;;;;;;;-0.08;100.00;102463.06;4915984;29;20032;-96
2023/01/26 08:36:04;;;;;;;34.65;11.32;;;;;;;-0.09;100.00;102462.13;4917139;29;20019;-96
2023/01/26 08:38:30;;;;;;;35.90;12.00;;;;;;;-0.06;100.00;102467.59;4923143;29;20568;-96
2023/01/26 08:40:57;;;;;;;35.58;11.77;;;;;;;-0.06;100.00;102465.00;4921231;29;20023;-96
2023/01/26 08:43:22;;;;;;;36.42;11.63;;;;;;;-0.05;100.00;102464.22;4912339;29;20039;-96
2023/01/26 08:45:48;;;;;;;35.85;12.57;;;;;;;-0.04;100.00;102470.28;4935584;29;20048;-96
2023/01/26 08:48:13;;;;;;;35.15;12.32;;;;;;;-0.06;100.00;102462.47;4934012;29;20055;-96
2023/01/26 08:50:41;;;;;;;41.13;13.35;;;;;;;-0.06;100.00;102476.91;4920887;29;20188;-96
2023/01/26 08:53:06;;;;;;;35.65;11.73;;;;;;;-0.03;100.00;102466.94;4923266;29;20031;-96
2023/01/26 08:55:34;;;;;;;36.70;12.88;;;;;;;-0.02;100.00;102474.75;4917237;29;20043;-96
2023/01/26 08:57:59;;;;;;;36.72;12.77;;;;;;;0.02;100.00;102477.63;4921293;29;20047;-96
2023/01/26 09:03:02;;;;;;;38.60;13.63;;;;;;;0.06;100.00;102475.50;4452332;23;20429;-70
2023/01/26 09:07:58;;;;;;;38.97;13.52;;;;;;;0.08;100.00;102468.84;5048553;23;20294;-96
2023/01/26 09:10:24;;;;;;;41.92;13.95;;;;;;;0.10;100.00;102474.09;4997038;28;20046;-96
2023/01/26 09:12:49;;;;;;;41.72;13.65;;;;;;;0.09;100.00;102473.22;4993772;28;20036;-96
2023/01/26 09:15:18;;;;;;;45.22;13.48;;;;;;;0.10;100.00;102477.59;4996933;28;20049;-96
2023/01/26 09:17:47;;;;;;;44.33;14.48;;;;;;;0.10;100.00;102475.03;4996910;28;20468;-96
2023/01/26 09:20:13;;;;;;;43.17;14.80;;;;;;;0.12;100.00;102478.63;5002764;28;20085;-96
2023/01/26 09:22:38;;;;;;;44.35;14.77;;;;;;;0.09;100.00;102483.47;5006323;28;20022;-96
2023/01/26 09:25:04;;;;;;;45.50;13.90;;;;;;;0.06;100.00;102483.19;5001355;28;20037;-96
2023/01/26 09:27:34;;;;;;;48.42;14.65;;;;;;;0.05;100.00;102475.34;5002585;28;20038;-96
2023/01/26 09:30:00;;;;;;;39.95;14.05;;;;;;;0.05;100.00;102472.78;5006917;28;20037;-96
2023/01/26 09:32:25;;;;;;;45.92;14.63;;;;;;;0.03;100.00;102464.97;4998179;28;20117;-96
2023/01/26 09:37:22;;;;;;;45.28;15.68;;;;;;;0.13;100.00;102485.56;4571551;23;20025;-63
2023/01/26 09:39:48;;;;;;;39.47;14.18;;;;;;;0.15;100.00;102478.88;5103377;23;20058;-71
2023/01/26 09:42:41;;;;;;;42.45;14.00;;;;;;;0.19;100.00;102490.34;5047255;23;20425;-63
2023/01/26 09:45:12;;;;;;;41.53;15.73;;;;;;;0.20;100.00;102493.78;4987818;23;20046;-64
2023/01/26 09:51:52;;;;;;;42.58;13.80;;;;;;;0.24;100.00;102483.06;5000550;28;20053;-64
2023/01/26 09:56:48;;;;;;;45.20;14.60;;;;;;;0.28;100.00;102488.63;5098627;23;20545;-63
2023/01/26 10:01:58;;;;;;;45.17;14.70;;;;;;;0.36;100.00;102488.41;4714506;23;20531;-64
2023/01/26 10:04:23;;;;;;;40.08;14.23;;;;;;;0.37;100.00;102486.00;5044467;23;20080;-96
2023/01/26 10:06:52;;;;;;;51.00;14.70;;;;;;;0.38;100.00;102477.53;5020154;28;20022;-96
2023/01/26 10:09:28;;;;;;;44.33;13.77;;;;;;;0.42;100.00;102481.28;5008344;28;20109;-96
2023/01/26 10:12:05;;;;;;;48.38;15.70;;;;;;;0.43;100.00;102475.41;5007640;28;20048;-96
2023/01/26 10:14:49;;;;;;;47.72;14.90;;;;;;;0.46;100.00;102475.66;5011290;28;20038;-96
2023/01/26 10:17:24;;;;;;;48.45;14.70;;;;;;;0.47;100.00;102483.50;5012095;23;20517;-63
2023/01/26 10:20:07;;;;;;;47.63;14.60;;;;;;;0.49;100.00;102484.56;5274021;23;20072;-63
2023/01/26 10:22:37;;;;;;;45.20;14.15;;;;;;;0.50;100.00;102472.63;5135501;23;20084;-70
2023/01/26 10:25:16;;;;;;;47.88;15.80;;;;;;;0.50;100.00;102478.63;5032468;23;20106;-96
2023/01/26 10:27:44;;;;;;;51.75;16.10;;;;;;;0.49;100.00;102470.81;4995027;28;20038;-96
2023/01/26 10:30:13;;;;;;;47.80;15.55;;;;;;;0.52;100.00;102476.22;5097814;23;20116;-63
2023/01/26 10:32:40;;;;;;;55.42;17.00;;;;;;;0.55;100.00;102483.28;5210256;23;20110;-70
2023/01/26 10:35:15;;;;;;;50.65;16.15;;;;;;;0.58;100.00;102483.56;4953609;28;20038;-71
2023/01/26 10:37:40;;;;;;;50.50;16.15;;;;;;;0.60;100.00;102471.78;5003900;23;20055;-96
2023/01/26 10:40:06;;;;;;;53.33;16.27;;;;;;;0.65;100.00;102478.22;4992733;28;20080;-96
2023/01/26 10:42:35;;;;;;;49.33;15.48;;;;;;;0.72;100.00;102487.38;4987009;28;20029;-96
2023/01/26 10:45:04;;;;;;;51.83;17.35;;;;;;;0.77;100.00;102489.59;4992287;28;20010;-96
2023/01/26 10:47:30;;;;;;;57.95;16.45;;;;;;;0.81;100.00;102478.84;5002056;28;20037;-96
2023/01/26 10:50:23;;;;;;;58.97;16.63;;;;;;;0.88;100.00;102472.59;4995379;28;20026;-96
2023/01/26 10:53:03;;;;;;;51.97;15.70;;;;;;;0.93;100.00;102473.91;4997338;28;20045;-96
2023/01/26 10:55:30;;;;;;;58.42;17.17;;;;;;;1.00;100.00;102480.47;5009748;23;20060;-63
2023/01/26 10:57:56;;;;;;;56.17;15.70;;;;;;;1.03;100.00;102484.22;5201353;23;20158;-63
2023/01/26 11:00:29;;;;;;;58.63;17.33;;;;;;;1.09;100.00;102482.97;5113098;23;20734;-70
2023/01/26 11:03:03;;;;;;;59.00;16.73;;;;;;;1.13;100.00;102483.38;5168971;23;20073;-63
2023/01/26 11:15:56;;;;;;;58.60;16.60;;;;;;;1.42;100.00;102473.84;5031187;23;20274;-95
2023/01/26 11:24:10;;;;;;;58.25;16.27;;;;;;;1.63;100.00;102474.81;5095124;23;20045;-96
2023/01/26 11:35:24;;;;;;;63.33;17.02;;;;;;;2.04;100.00;102487.72;5012856;23;20141;-95
2023/01/26 11:38:01;;;;;;;62.92;16.10;;;;;;;2.16;100.00;102480.13;4942205;29;20036;-96
2023/01/26 11:41:01;;;;;;;53.30;15.02;;;;;;;2.26;100.00;102473.31;5010383;23;20051;-96
2023/01/26 11:44:06;;;;;;;57.03;15.13;;;;;;;2.38;100.00;102469.97;4927499;23;20031;-63
2023/01/26 11:49:29;;;;;;;58.17;15.70;;;;;;;2.52;100.00;102461.72;5169460;23;20067;-61
2023/01/26 11:54:42;;;;;;;56.08;15.27;;;;;;;2.70;100.00;102451.16;4950927;23;20160;-61
2023/01/26 11:59:51;;;;;;;61.35;15.93;;;;;;;2.85;100.00;102449.78;5124858;23;20997;-68
2023/01/26 12:02:43;;;;;;;;;;;;;;;2.96;100.00;102449.00;5266171;23;20120;-61
2023/01/26 12:05:21;;;;;;;58.55;13.77;;;;;;;3.13;100.00;102449.47;5092422;23;19965;-61
2023/01/26 12:10:56;;;;;;;44.70;13.30;;;;;;;3.37;100.00;102447.00;4974971;28;20050;-61
2023/01/26 12:13:40;;;;;;;49.85;12.75;;;;;;;3.50;100.00;102446.31;4784773;23;20248;-62
2023/01/26 12:18:47;;;;;;;57.00;12.23;;;;;;;3.79;100.00;102435.66;5099736;23;20039;-61
2023/01/26 12:23:46;;;;;;;40.97;10.98;;;;;;;3.96;100.00;102430.13;5031735;23;20505;-96
2023/01/26 12:26:24;;;;;;;44.72;10.77;;;;;;;4.08;100.00;102426.66;5133927;23;20100;-62
2023/01/26 12:29:10;;;;;;;43.80;11.10;;;;;;;4.15;100.00;102424.66;5059939;23;20072;31
2023/01/26 12:36:49;;;;;;;48.63;11.93;;;;;;;4.33;100.00;102408.75;4686296;23;20660;-68
2023/01/26 12:39:19;;;;;;;44.92;10.73;;;;;;;4.39;100.00;102408.31;4983318;28;20076;-68
2023/01/26 12:42:12;;;;;;;50.53;11.10;;;;;;;4.47;100.00;102404.63;4983898;28;20045;-68
2023/01/26 12:57:48;;;;;;;49.22;10.55;;;;;;;4.84;100.00;102391.81;5092392;23;20068;-62
2023/01/26 13:00:19;;;;;;;44.42;10.85;;;;;;;4.85;100.00;102391.00;4984042;28;20038;-61
2023/01/26 13:02:55;;;;;;;39.15;9.38;;;;;;;4.88;100.00;102389.56;5148630;23;20090;-96
2023/01/26 13:05:55;;;;;;;44.17;10.52;;;;;;;4.95;100.00;102385.72;4999464;28;20132;-96
2023/01/26 13:08:57;;;;;;;;;;;;;;;;;;;;;
2023/01/26 13:11:37;;;;;;;31.35;8.18;;;;;;;5.01;100.00;102374.91;5030640;23;20493;-69
2023/01/26 13:16:36;;;;;;;32.95;6.13;;;;;;;5.05;100.00;102379.53;5189190;23;20062;31
2023/01/26 13:19:29;;;;;;;35.70;6.13;;;;;;;5.07;100.00;102383.13;5081382;23;20025;-96
2023/01/26 13:22:00;;;;;;;32.83;6.13;;;;;;;5.05;100.00;102380.44;5136717;23;20034;-95
2023/01/26 13:24:46;;;;;;;31.50;5.88;;;;;;;5.05;100.00;102372.69;5174818;23;20050;-96
2023/01/26 13:27:35;;;;;;;32.47;6.50;;;;;;;5.10;100.00;102374.66;5000210;23;20043;-96
2023/01/26 13:30:00;;;;;;;32.30;6.75;;;;;;;5.14;100.00;102372.44;4963270;28;20034;-96
2023/01/26 13:32:54;;;;;;;39.03;7.13;;;;;;;5.21;100.00;102371.16;4949938;29;20030;-96
2023/01/26 13:35:23;;;;;;;44.40;6.90;;;;;;;5.28;100.00;102363.03;4919995;28;20067;-96
2023/01/26 13:37:53;;;;;;;34.00;7.03;;;;;;;5.32;100.00;102366.75;4944919;29;20137;-96
2023/01/26 13:40:24;;;;;;;37.47;7.80;;;;;;;5.32;100.00;102361.59;4946994;28;20035;-96
2023/01/26 13:43:11;;;;;;;27.30;5.22;;;;;;;5.30;100.00;102370.91;4930225;29;20488;-96
2023/01/26 13:46:01;;;;;;;34.03;4.93;;;;;;;5.28;100.00;102370.81;4949240;28;20023;-96
2023/01/26 13:48:43;;;;;;;26.48;4.25;;;;;;;5.27;100.00;102369.03;4959078;28;20034;-96
2023/01/26 13:51:42;;;;;;;29.90;4.78;;;;;;;5.26;100.00;102374.06;4965918;28;20035;-96
2023/01/26 13:54:15;;;;;;;23.45;3.75;;;;;;;5.22;100.00;102378.13;4962203;28;20054;-96
2023/01/26 13:57:05;;;;;;;34.08;5.40;;;;;;;5.19;100.00;102370.16;5135801;23;20100;-61
2023/01/26 14:02:33;;;;;;;29.10;4.50;;;;;;;5.24;100.00;102363.63;5162414;23;20054;-96
2023/01/26 14:04:59;;;;;;;32.30;4.85;;;;;;;5.27;100.00;102368.13;4176400;23;20047;-61
2023/01/26 14:10:42;;;;;;;42.35;6.47;;;;;;;5.31;100.00;102371.00;4929632;28;20573;-96
2023/01/26 14:18:21;;;;;;;29.55;5.78;;;;;;;5.32;100.00;102377.09;4980101;28;20057;-61
2023/01/26 14:20:46;;;;;;;24.73;4.15;;;;;;;5.35;100.00;102380.78;4983071;28;20023;-61